Time;durP1;ratioP1;P1;durP2;ratioP2;P2;SDS_P1;SDS_P2;PMS_P1;PMS_P2;Temp;Humidity;BMP_temperature;BMP_pressure;BME280_temperature;BME280_humidity;BME280_pressure;Samples;Min_cycle;Max_cycle;Signal;HPM_P1;HPM_P2
2021/11/13 00:01:57;;;;;;;;;;;4.10;99.90;;;;;;5021615;28;20384;-61
2021/11/13 00:06:59;;;;;;;;;;;4.10;99.90;;;;;;4971268;28;20397;-60
2021/11/13 00:09:24;;;;;;;;;;;4.10;99.90;;;;;;4971926;28;19914;-61
2021/11/13 00:11:49;;;;;;;;;;;4.10;99.90;;;;;;4976029;28;19920;-59
2021/11/13 00:14:19;;;;;;;;;;;4.10;99.90;;;;;;4975281;28;20518;-62
2021/11/13 00:16:45;;;;;;;;;;;4.00;99.90;;;;;;4973708;28;20593;-61
2021/11/13 00:19:11;;;;;;;;;;;3.90;99.90;;;;;;4970222;28;19976;-61
2021/11/13 00:21:36;;;;;;;;;;;3.90;99.90;;;;;;4969662;28;20016;-60
2021/11/13 00:24:02;;;;;;;;;;;4.00;99.90;;;;;;4969121;28;19952;-60
2021/11/13 00:26:28;;;;;;;;;;;4.10;99.90;;;;;;4968908;28;20000;-61
2021/11/13 00:28:53;;;;;;;;;;;4.10;99.90;;;;;;4967987;28;19918;-61
2021/11/13 00:31:18;;;;;;;;;;;4.20;99.90;;;;;;4971040;28;19918;-61
2021/11/13 00:33:44;;;;;;;;;;;4.30;99.90;;;;;;4972540;28;19926;-61
2021/11/13 00:36:09;;;;;;;;;;;4.30;99.90;;;;;;4972115;28;20478;-60
2021/11/13 00:38:35;;;;;;;;;;;4.40;99.90;;;;;;4968204;28;20037;-60
2021/11/13 00:41:00;;;;;;;;;;;4.40;99.90;;;;;;4967096;28;19958;-61
2021/11/13 00:43:27;;;;;;;;;;;4.40;99.90;;;;;;4975405;28;19921;-60
2021/11/13 00:45:52;;;;;;;;;;;4.40;99.90;;;;;;4972091;28;20004;-61
2021/11/13 00:48:18;;;;;;;;;;;4.40;99.90;;;;;;4973682;28;19997;-61
2021/11/13 00:50:43;;;;;;;;;;;4.50;99.90;;;;;;4972257;28;19922;-61
2021/11/13 00:53:09;;;;;;;;;;;4.50;99.90;;;;;;4972141;28;19922;-57
2021/11/13 00:55:35;;;;;;;;;;;4.50;99.90;;;;;;4971048;28;19914;-61
2021/11/13 00:58:00;;;;;;;;;;;4.50;99.90;;;;;;4966374;28;19914;-62
2021/11/13 01:00:26;;;;;;;;;;;4.50;99.90;;;;;;4968072;28;19913;-61
2021/11/13 01:02:52;;;;;;;;;;;4.40;99.90;;;;;;4966176;28;20299;-59
2021/11/13 01:05:18;;;;;;;;;;;4.40;99.90;;;;;;4978241;28;20021;-62
2021/11/13 01:07:44;;;;;;;;;;;4.40;99.90;;;;;;4972378;28;19918;-59
2021/11/13 01:10:10;;;;;;;;;;;4.30;99.90;;;;;;4968438;28;19928;-61
2021/11/13 01:12:36;;;;;;;;;;;4.30;99.90;;;;;;4973619;28;19926;-58
2021/11/13 01:15:03;;;;;;;;;;;4.20;99.90;;;;;;4974322;28;20287;-60
2021/11/13 01:17:28;;;;;;;;;;;4.30;99.90;;;;;;4972253;28;20000;-61
2021/11/13 01:19:54;;;;;;;;;;;4.30;99.90;;;;;;4970119;28;20854;-59
2021/11/13 01:22:19;;;;;;;;;;;4.30;99.90;;;;;;4972709;28;19922;-62
2021/11/13 01:24:47;;;;;;;;;;;4.40;99.90;;;;;;4974913;28;19922;-62
2021/11/13 01:27:12;;;;;;;;;;;4.40;99.90;;;;;;4971910;28;19918;-60
2021/11/13 01:29:38;;;;;;;;;;;4.40;99.90;;;;;;4976609;28;19914;-59
2021/11/13 01:32:04;;;;;;;;;;;4.40;99.90;;;;;;4953875;28;19965;-63
2021/11/13 01:34:30;;;;;;;;;;;4.40;99.90;;;;;;4972325;28;19999;-62
2021/11/13 01:36:55;;;;;;;;;;;4.40;99.90;;;;;;4971989;28;19918;-62
2021/11/13 01:39:21;;;;;;;;;;;4.30;99.90;;;;;;4971524;28;19941;-61
2021/11/13 01:41:47;;;;;;;;;;;4.20;99.90;;;;;;4974396;28;19918;-58
2021/11/13 01:44:13;;;;;;;;;;;4.10;99.90;;;;;;4972883;28;20310;-59
2021/11/13 01:46:38;;;;;;;;;;;4.10;99.90;;;;;;4972049;28;19918;-60
2021/11/13 01:49:04;;;;;;;;;;;4.20;99.90;;;;;;4972087;28;19914;-62
2021/11/13 01:51:32;;;;;;;;;;;4.30;99.90;;;;;;4971980;28;19918;-62
2021/11/13 01:54:03;;;;;;;;;;;4.30;99.90;;;;;;4975160;28;20364;-60
2021/11/13 01:56:29;;;;;;;;;;;4.20;99.90;;;;;;4973059;28;19941;-62
2021/11/13 01:58:55;;;;;;;;;;;4.20;99.90;;;;;;4972743;28;20550;-62
2021/11/13 02:01:21;;;;;;;;;;;4.20;99.90;;;;;;4972259;28;19925;-59
2021/11/13 02:03:48;;;;;;;;;;;4.20;99.90;;;;;;4972228;28;19918;-62
2021/11/13 02:06:14;;;;;;;;;;;4.30;99.90;;;;;;4972015;28;19933;-58
2021/11/13 02:08:41;;;;;;;;;;;4.40;99.90;;;;;;4971155;28;19918;-60
2021/11/13 02:11:07;;;;;;;;;;;4.40;99.90;;;;;;4972132;28;19918;-63
2021/11/13 02:13:33;;;;;;;;;;;4.30;99.90;;;;;;4971529;28;19922;-63
2021/11/13 02:15:58;;;;;;;;;;;4.30;99.90;;;;;;4973414;28;19922;-62
2021/11/13 02:18:24;;;;;;;;;;;4.30;99.90;;;;;;4974308;28;20016;-58
2021/11/13 02:20:49;;;;;;;;;;;4.20;99.90;;;;;;4980307;28;20293;-62
2021/11/13 02:23:16;;;;;;;;;;;4.10;99.90;;;;;;4971608;28;19922;-62
2021/11/13 02:25:42;;;;;;;;;;;4.10;99.90;;;;;;4971053;28;19914;-59
2021/11/13 02:28:08;;;;;;;;;;;4.10;99.90;;;;;;4974223;28;19924;-61
2021/11/13 02:30:34;;;;;;;;;;;4.10;99.90;;;;;;4976223;28;19914;-59
2021/11/13 02:33:00;;;;;;;;;;;4.20;99.90;;;;;;4973565;28;20483;-63
2021/11/13 02:35:27;;;;;;;;;;;4.20;99.90;;;;;;4985616;28;19921;-61
2021/11/13 02:37:52;;;;;;;;;;;4.20;99.90;;;;;;4975855;28;19918;-59
2021/11/13 02:40:18;;;;;;;;;;;4.30;99.90;;;;;;4977217;28;19959;-62
2021/11/13 02:42:44;;;;;;;;;;;4.40;99.90;;;;;;4970747;28;20013;-58
2021/11/13 02:45:11;;;;;;;;;;;4.50;99.90;;;;;;4970755;28;19932;-62
2021/11/13 02:47:38;;;;;;;;;;;4.50;99.90;;;;;;4970996;28;19922;-60
2021/11/13 02:50:04;;;;;;;;;;;4.60;99.90;;;;;;4971038;28;19918;-62
2021/11/13 02:52:47;;;;;;;;;;;4.60;99.90;;;;;;4970865;28;19973;-63
2021/11/13 02:55:13;;;;;;;;;;;4.70;99.90;;;;;;4974085;28;19924;-62
2021/11/13 02:57:39;;;;;;;;;;;4.80;99.90;;;;;;4975384;28;20009;-61
2021/11/13 03:00:05;;;;;;;;;;;4.80;99.90;;;;;;4974318;28;19970;-62
2021/11/13 03:02:31;;;;;;;;;;;4.90;99.90;;;;;;4970270;28;19917;-62
2021/11/13 03:04:56;;;;;;;;;;;4.80;99.90;;;;;;4972681;28;20260;-62
2021/11/13 03:07:22;;;;;;;;;;;4.90;99.90;;;;;;4971304;28;20016;-61
2021/11/13 03:09:47;;;;;;;;;;;5.00;99.90;;;;;;4970427;28;20394;-59
2021/11/13 03:12:13;;;;;;;;;;;4.90;99.90;;;;;;4970681;28;20342;-62
2021/11/13 03:14:38;;;;;;;;;;;4.90;99.90;;;;;;4973031;28;19914;-59
2021/11/13 03:17:06;;;;;;;;;;;4.90;99.90;;;;;;4968816;28;19929;-61
2021/11/13 03:19:31;;;;;;;;;;;4.90;99.90;;;;;;4970711;28;19918;-62
2021/11/13 03:21:57;;;;;;;;;;;4.90;99.90;;;;;;4968384;28;19914;-58
2021/11/13 03:24:23;;;;;;;;;;;4.90;99.90;;;;;;4969376;28;19929;-62
2021/11/13 03:26:49;;;;;;;;;;;4.90;99.90;;;;;;4971487;28;19929;-59
2021/11/13 03:29:16;;;;;;;;;;;4.90;99.90;;;;;;4970672;28;20025;-62
2021/11/13 03:31:42;;;;;;;;;;;4.90;99.90;;;;;;4969305;28;19921;-59
2021/11/13 03:34:09;;;;;;;;;;;4.90;99.90;;;;;;4969138;28;20005;-60
2021/11/13 03:36:34;;;;;;;;;;;5.00;99.90;;;;;;4969014;28;19914;-58
2021/11/13 03:39:00;;;;;;;;;;;5.00;99.90;;;;;;4970125;28;20320;-63
2021/11/13 03:41:28;;;;;;;;;;;5.10;99.90;;;;;;4974638;28;19921;-61
2021/11/13 03:43:53;;;;;;;;;;;5.10;99.90;;;;;;4972191;28;19918;-60
2021/11/13 03:46:19;;;;;;;;;;;5.20;99.90;;;;;;4970210;28;20017;-61
2021/11/13 03:48:46;;;;;;;;;;;5.20;99.90;;;;;;4969251;28;19925;-63
2021/11/13 03:51:11;;;;;;;;;;;5.20;99.90;;;;;;4969720;28;20089;-63
2021/11/13 03:53:37;;;;;;;;;;;5.20;99.90;;;;;;4969755;28;20004;-59
2021/11/13 03:56:03;;;;;;;;;;;5.20;99.90;;;;;;4969845;28;20020;-61
2021/11/13 03:58:28;;;;;;;;;;;5.30;99.90;;;;;;4970390;28;19917;-62
2021/11/13 04:00:53;;;;;;;;;;;5.30;99.90;;;;;;4971287;28;19918;-59
2021/11/13 04:03:19;;;;;;;;;;;5.30;99.90;;;;;;4968150;28;19945;-61
2021/11/13 04:05:45;;;;;;;;;;;5.30;99.90;;;;;;4970117;28;19933;-63
2021/11/13 04:08:11;;;;;;;;;;;5.40;99.90;;;;;;4975802;28;19914;-62
2021/11/13 04:10:36;;;;;;;;;;;5.40;99.90;;;;;;4971544;28;19953;-63
2021/11/13 04:13:02;;;;;;;;;;;5.40;99.90;;;;;;4973609;28;20367;-59
2021/11/13 04:15:27;;;;;;;;;;;5.40;99.90;;;;;;4969062;28;19968;-60
2021/11/13 04:17:53;;;;;;;;;;;5.40;99.90;;;;;;4970057;28;19984;-59
2021/11/13 04:20:19;;;;;;;;;;;5.40;99.90;;;;;;4967720;28;19918;-61
2021/11/13 04:22:44;;;;;;;;;;;5.40;99.90;;;;;;4969486;28;20566;-62
2021/11/13 04:25:10;;;;;;;;;;;5.40;99.90;;;;;;4975187;28;20386;-61
2021/11/13 04:27:36;;;;;;;;;;;5.40;99.90;;;;;;4968687;28;20383;-61
2021/11/13 04:30:03;;;;;;;;;;;5.40;99.90;;;;;;4970563;28;20020;-61
2021/11/13 04:32:34;;;;;;;;;;;5.40;99.90;;;;;;4973964;28;20056;-62
2021/11/13 04:37:26;;;;;;;;;;;5.40;99.90;;;;;;4966914;28;19915;-60
2021/11/13 04:39:51;;;;;;;;;;;5.40;99.90;;;;;;4970025;28;19972;-60
2021/11/13 04:42:17;;;;;;;;;;;5.30;99.90;;;;;;4968806;28;20048;-63
2021/11/13 04:44:43;;;;;;;;;;;5.30;99.90;;;;;;4970062;28;20388;-62
2021/11/13 04:47:09;;;;;;;;;;;5.20;99.90;;;;;;4968541;28;19972;-59
2021/11/13 04:49:34;;;;;;;;;;;5.20;99.90;;;;;;4968971;28;20031;-60
2021/11/13 04:52:02;;;;;;;;;;;5.20;99.90;;;;;;4968454;28;19918;-63
2021/11/13 04:54:27;;;;;;;;;;;5.10;99.90;;;;;;4968136;28;19918;-63
2021/11/13 04:56:53;;;;;;;;;;;5.10;99.90;;;;;;4969865;28;19918;-59
2021/11/13 04:59:19;;;;;;;;;;;5.10;99.90;;;;;;4970150;28;20387;-62
2021/11/13 05:01:45;;;;;;;;;;;5.00;99.90;;;;;;4969567;28;20092;-59
2021/11/13 05:04:10;;;;;;;;;;;5.10;99.90;;;;;;4969756;28;19918;-63
2021/11/13 05:06:36;;;;;;;;;;;5.00;99.90;;;;;;4969342;28;19926;-63
2021/11/13 05:09:01;;;;;;;;;;;5.00;99.90;;;;;;4972699;28;19925;-61
2021/11/13 05:11:27;;;;;;;;;;;5.00;99.90;;;;;;4966217;28;20001;-63
2021/11/13 05:13:52;;;;;;;;;;;5.10;99.90;;;;;;4966209;28;20045;-63
2021/11/13 05:16:17;;;;;;;;;;;5.00;99.90;;;;;;4968759;28;19915;-61
2021/11/13 05:18:43;;;;;;;;;;;5.10;99.90;;;;;;4969479;28;20655;-61
2021/11/13 05:21:09;;;;;;;;;;;5.10;99.90;;;;;;4968404;28;19910;-63
2021/11/13 05:23:34;;;;;;;;;;;5.10;99.90;;;;;;4967818;28;19921;-62
2021/11/13 05:26:00;;;;;;;;;;;5.00;99.90;;;;;;4967535;28;19914;-61
2021/11/13 05:28:25;;;;;;;;;;;5.10;99.90;;;;;;4974307;28;20790;-60
2021/11/13 05:30:51;;;;;;;;;;;5.00;99.90;;;;;;4970300;28;20252;-63
2021/11/13 05:33:16;;;;;;;;;;;5.10;99.90;;;;;;4969226;28;20434;-63
2021/11/13 05:35:42;;;;;;;;;;;5.00;99.90;;;;;;4968735;28;19997;-61
2021/11/13 05:38:07;;;;;;;;;;;5.00;99.90;;;;;;4968285;28;19914;-61
2021/11/13 05:40:33;;;;;;;;;;;5.00;99.90;;;;;;4968742;28;19918;-62
2021/11/13 05:42:59;;;;;;;;;;;5.10;99.90;;;;;;4971129;28;19914;-60
2021/11/13 05:45:24;;;;;;;;;;;5.10;99.90;;;;;;4968238;28;19929;-62
2021/11/13 05:47:50;;;;;;;;;;;5.00;99.90;;;;;;4967906;28;19914;-58
2021/11/13 05:50:16;;;;;;;;;;;5.00;99.90;;;;;;4968112;28;20068;-63
2021/11/13 05:52:43;;;;;;;;;;;5.00;99.90;;;;;;4974402;28;20310;-62
2021/11/13 05:55:09;;;;;;;;;;;4.90;99.90;;;;;;4969545;28;20598;-62
2021/11/13 05:57:35;;;;;;;;;;;5.00;99.90;;;;;;4970525;28;19921;-61
2021/11/13 06:00:01;;;;;;;;;;;5.00;99.90;;;;;;4978742;28;20599;-61
2021/11/13 06:02:26;;;;;;;;;;;5.00;99.90;;;;;;4970260;28;20005;-59
2021/11/13 06:04:51;;;;;;;;;;;5.10;99.90;;;;;;4973337;28;19922;-59
2021/11/13 06:07:17;;;;;;;;;;;5.10;99.90;;;;;;4976863;28;20367;-60
2021/11/13 06:09:42;;;;;;;;;;;5.10;99.90;;;;;;4971714;28;19925;-60
2021/11/13 06:12:08;;;;;;;;;;;5.10;99.90;;;;;;4970593;28;19920;-61
2021/11/13 06:14:33;;;;;;;;;;;5.10;99.90;;;;;;4970750;28;19918;-60
2021/11/13 06:16:59;;;;;;;;;;;5.10;99.90;;;;;;4971205;28;20355;-60
2021/11/13 06:19:24;;;;;;;;;;;5.10;99.90;;;;;;4975187;28;20295;-59
2021/11/13 06:21:50;;;;;;;;;;;5.10;99.90;;;;;;4971591;28;20303;-59
2021/11/13 06:24:15;;;;;;;;;;;5.10;99.90;;;;;;4970540;28;19929;-61
2021/11/13 06:26:41;;;;;;;;;;;5.10;99.90;;;;;;4971410;28;19918;-60
2021/11/13 06:29:06;;;;;;;;;;;5.10;99.90;;;;;;4971643;28;20421;-58
2021/11/13 06:31:32;;;;;;;;;;;5.10;99.90;;;;;;4972127;28;19925;-59
2021/11/13 06:33:57;;;;;;;;;;;5.00;99.90;;;;;;4971614;28;20140;-60
2021/11/13 06:36:23;;;;;;;;;;;5.00;99.90;;;;;;4971982;28;20895;-58
2021/11/13 06:38:48;;;;;;;;;;;5.00;99.90;;;;;;4971262;28;20405;-60
2021/11/13 06:41:14;;;;;;;;;;;5.00;99.90;;;;;;4970706;28;19921;-60
2021/11/13 06:43:39;;;;;;;;;;;4.90;99.90;;;;;;4970998;28;19970;-58
2021/11/13 06:46:04;;;;;;;;;;;4.90;99.90;;;;;;4971078;28;19914;-58
2021/11/13 06:48:30;;;;;;;;;;;4.90;99.90;;;;;;4970896;28;19928;-60
2021/11/13 06:50:56;;;;;;;;;;;4.90;99.90;;;;;;4968842;28;19921;-61
2021/11/13 06:53:21;;;;;;;;;;;4.80;99.90;;;;;;4970829;28;19985;-58
2021/11/13 06:55:48;;;;;;;;;;;4.80;99.90;;;;;;4975764;28;19918;-61
2021/11/13 06:58:14;;;;;;;;;;;4.80;99.90;;;;;;4971373;28;19922;-59
2021/11/13 07:00:39;;;;;;;;;;;4.80;99.90;;;;;;4975285;28;20339;-59
2021/11/13 07:03:04;;;;;;;;;;;4.80;99.90;;;;;;4969493;28;19918;-61
2021/11/13 07:05:30;;;;;;;;;;;4.80;99.90;;;;;;4969280;28;19964;-61
2021/11/13 07:07:56;;;;;;;;;;;4.90;99.90;;;;;;4971047;28;19922;-60
2021/11/13 07:10:22;;;;;;;;;;;4.90;99.90;;;;;;4977417;28;19910;-59
2021/11/13 07:12:49;;;;;;;;;;;5.00;99.90;;;;;;4976149;28;19916;-59
2021/11/13 07:15:15;;;;;;;;;;;5.00;99.90;;;;;;4971102;28;19914;-61
2021/11/13 07:17:41;;;;;;;;;;;5.10;99.90;;;;;;4971066;28;19945;-61
2021/11/13 07:20:08;;;;;;;;;;;5.00;99.90;;;;;;4968805;28;19914;-62
2021/11/13 07:22:33;;;;;;;;;;;5.10;99.90;;;;;;4970879;28;19953;-62
2021/11/13 07:24:59;;;;;;;;;;;5.10;99.90;;;;;;4955321;28;19968;-59
2021/11/13 07:27:24;;;;;;;;;;;5.10;99.90;;;;;;4968869;28;20109;-61
2021/11/13 07:30:03;;;;;;;;;;;5.20;99.90;;;;;;4972218;28;20008;-58
2021/11/13 07:32:30;;;;;;;;;;;5.20;99.90;;;;;;4969262;28;19914;-59
2021/11/13 07:34:56;;;;;;;;;;;5.30;99.90;;;;;;4969920;28;19914;-62
2021/11/13 07:37:21;;;;;;;;;;;5.40;99.90;;;;;;4970060;28;20337;-61
2021/11/13 07:39:47;;;;;;;;;;;5.40;99.90;;;;;;4969020;28;20004;-59
2021/11/13 07:42:12;;;;;;;;;;;5.50;99.90;;;;;;4969303;28;19945;-61
2021/11/13 07:44:38;;;;;;;;;;;5.60;99.90;;;;;;4970530;28;20243;-61
2021/11/13 07:47:03;;;;;;;;;;;5.70;99.90;;;;;;4971527;28;19989;-60
2021/11/13 07:49:29;;;;;;;;;;;5.80;99.90;;;;;;4973201;28;19985;-56
2021/11/13 07:51:54;;;;;;;;;;;5.90;99.90;;;;;;4974386;28;20338;-61
2021/11/13 07:54:20;;;;;;;;;;;5.90;99.90;;;;;;4974089;28;19922;-59
2021/11/13 07:56:46;;;;;;;;;;;6.00;99.90;;;;;;4958180;28;19922;-58
2021/11/13 07:59:13;;;;;;;;;;;6.10;99.90;;;;;;4975505;28;19918;-58
2021/11/13 08:01:39;;;;;;;;;;;6.20;99.90;;;;;;4974087;28;19921;-61
2021/11/13 08:04:04;;;;;;;;;;;6.30;99.90;;;;;;4967723;28;20012;-60
2021/11/13 08:06:30;;;;;;;;;;;6.30;99.90;;;;;;4971918;28;19980;-60
2021/11/13 08:08:57;;;;;;;;;;;6.30;99.90;;;;;;4971154;28;21307;-60
2021/11/13 08:11:23;;;;;;;;;;;6.40;99.90;;;;;;4965627;28;19924;-61
2021/11/13 08:13:48;;;;;;;;;;;6.40;99.90;;;;;;4971951;28;20358;-60
2021/11/13 08:16:13;;;;;;;;;;;6.50;99.90;;;;;;4969284;28;19930;-58
2021/11/13 08:18:39;;;;;;;;;;;6.50;99.90;;;;;;4966586;28;20442;-61
2021/11/13 08:21:04;;;;;;;;;;;6.60;99.90;;;;;;4969007;28;19922;-59
2021/11/13 08:23:30;;;;;;;;;;;6.60;99.90;;;;;;4969728;28;19937;-58
2021/11/13 08:25:56;;;;;;;;;;;6.60;99.90;;;;;;4969576;28;19966;-57
2021/11/13 08:28:22;;;;;;;;;;;6.60;99.90;;;;;;4969636;28;19969;-60
2021/11/13 08:30:48;;;;;;;;;;;6.60;99.90;;;;;;4967964;28;19918;-60
2021/11/13 08:33:14;;;;;;;;;;;6.60;99.90;;;;;;4970032;28;20169;-58
2021/11/13 08:35:41;;;;;;;;;;;6.60;99.90;;;;;;4973710;28;20375;-61
2021/11/13 08:38:07;;;;;;;;;;;6.60;99.90;;;;;;4975634;28;20147;-58
2021/11/13 08:40:32;;;;;;;;;;;6.60;99.90;;;;;;4970797;28;19914;-58
2021/11/13 08:42:58;;;;;;;;;;;6.60;99.90;;;;;;4970080;28;20009;-58
2021/11/13 08:45:23;;;;;;;;;;;6.60;99.90;;;;;;4969641;28;19922;-61
2021/11/13 08:47:49;;;;;;;;;;;6.50;99.90;;;;;;4970349;28;19922;-58
2021/11/13 08:50:18;;;;;;;;;;;6.60;99.90;;;;;;4969436;28;19933;-60
2021/11/13 08:52:45;;;;;;;;;;;6.60;99.90;;;;;;4973209;28;19937;-60
2021/11/13 08:55:12;;;;;;;;;;;6.70;99.90;;;;;;4968145;28;19918;-60
2021/11/13 08:57:38;;;;;;;;;;;6.80;99.90;;;;;;4951398;28;19998;-59
2021/11/13 09:00:04;;;;;;;;;;;6.90;99.90;;;;;;4968988;28;20005;-61
2021/11/13 09:02:30;;;;;;;;;;;7.00;99.90;;;;;;4975290;28;19918;-61
2021/11/13 09:04:56;;;;;;;;;;;7.00;99.90;;;;;;4971325;28;20472;-60
2021/11/13 09:07:22;;;;;;;;;;;7.10;99.90;;;;;;4969453;28;19968;-58
2021/11/13 09:09:47;;;;;;;;;;;7.10;99.90;;;;;;4969863;28;20271;-60
2021/11/13 09:12:21;;;;;;;;;;;7.20;99.90;;;;;;4972041;28;19918;-60
2021/11/13 09:14:46;;;;;;;;;;;7.20;99.90;;;;;;4986776;28;19914;-60
2021/11/13 09:17:12;;;;;;;;;;;7.30;99.90;;;;;;4980495;28;19913;-60
2021/11/13 09:19:37;;;;;;;;;;;7.30;99.90;;;;;;4976844;28;19957;-59
2021/11/13 09:22:03;;;;;;;;;;;7.20;99.90;;;;;;4969494;28;19918;-60
2021/11/13 09:24:28;;;;;;;;;;;7.20;99.90;;;;;;4972517;28;19921;-60
2021/11/13 09:26:54;;;;;;;;;;;7.20;99.90;;;;;;4969718;28;20015;-60
2021/11/13 09:29:20;;;;;;;;;;;7.20;99.90;;;;;;4970033;28;19910;-60
2021/11/13 09:31:45;;;;;;;;;;;7.20;99.90;;;;;;4970009;28;19929;-60
2021/11/13 09:34:11;;;;;;;;;;;7.30;99.90;;;;;;4973041;28;20244;-60
2021/11/13 09:36:37;;;;;;;;;;;7.40;99.90;;;;;;4973165;28;19918;-60
2021/11/13 09:39:03;;;;;;;;;;;7.50;99.90;;;;;;4974676;28;19914;-60
2021/11/13 09:41:29;;;;;;;;;;;7.60;99.90;;;;;;4972616;28;20355;-60
2021/11/13 09:43:54;;;;;;;;;;;7.70;99.90;;;;;;4978378;28;20359;-60
2021/11/13 09:46:20;;;;;;;;;;;7.80;99.90;;;;;;4981885;28;20371;-60
2021/11/13 09:48:48;;;;;;;;;;;7.90;99.90;;;;;;4979014;28;20063;-60
2021/11/13 09:51:14;;;;;;;;;;;8.00;99.90;;;;;;4971929;28;19922;-60
2021/11/13 09:53:40;;;;;;;;;;;8.10;99.90;;;;;;4977247;28;19910;-60
2021/11/13 09:56:05;;;;;;;;;;;8.20;99.90;;;;;;4982243;28;19921;-59
2021/11/13 09:58:31;;;;;;;;;;;8.30;99.90;;;;;;4973748;28;19969;-60
2021/11/13 10:00:56;;;;;;;;;;;8.40;99.90;;;;;;4971664;28;19914;-60
2021/11/13 10:03:22;;;;;;;;;;;8.40;99.90;;;;;;4973354;28;20275;-61
2021/11/13 10:05:55;;;;;;;;;;;8.50;99.90;;;;;;4973915;28;19918;-60
2021/11/13 10:08:22;;;;;;;;;;;8.60;99.90;;;;;;4974245;28;19918;-61
2021/11/13 10:10:48;;;;;;;;;;;8.70;99.90;;;;;;4974462;28;19918;-60
2021/11/13 10:13:32;;;;;;;;;;;8.80;99.90;;;;;;4972046;28;19972;-60
2021/11/13 10:15:59;;;;;;;;;;;8.90;99.90;;;;;;4972012;28;19914;-61
2021/11/13 10:18:27;;;;;;;;;;;9.00;99.90;;;;;;4969723;28;19990;-60
2021/11/13 10:21:00;;;;;;;;;;;9.00;99.90;;;;;;4971870;28;19914;-60
2021/11/13 10:23:25;;;;;;;;;;;9.10;99.90;;;;;;4971108;28;19922;-60
2021/11/13 10:25:57;;;;;;;;;;;9.10;99.90;;;;;;4974727;28;19922;-61
2021/11/13 10:28:23;;;;;;;;;;;9.20;99.90;;;;;;4970993;28;19914;-61
2021/11/13 10:31:03;;;;;;;;;;;9.20;99.90;;;;;;4972251;28;20271;-61
2021/11/13 10:33:32;;;;;;;;;;;9.30;99.90;;;;;;4971224;28;19914;-60
2021/11/13 10:35:58;;;;;;;;;;;9.40;99.90;;;;;;4981094;28;20100;-60
2021/11/13 10:38:23;;;;;;;;;;;9.40;99.90;;;;;;4979747;28;20004;-61
2021/11/13 10:40:50;;;;;;;;;;;9.40;99.90;;;;;;4972538;28;19925;-61
2021/11/13 10:43:16;;;;;;;;;;;9.50;99.90;;;;;;4968665;28;20036;-62
2021/11/13 10:45:42;;;;;;;;;;;9.50;99.90;;;;;;4974824;28;19924;-61
2021/11/13 10:48:20;;;;;;;;;;;9.50;99.90;;;;;;4971661;28;19914;-61
2021/11/13 10:50:45;;;;;;;;;;;9.60;99.90;;;;;;4974014;28;20295;-61
2021/11/13 10:53:12;;;;;;;;;;;9.60;99.90;;;;;;4969262;28;20280;-61
2021/11/13 10:55:59;;;;;;;;;;;9.60;99.90;;;;;;4973469;28;19918;-61
2021/11/13 10:58:35;;;;;;;;;;;9.70;99.90;;;;;;4969134;28;20417;-63
2021/11/13 11:01:02;;;;;;;;;;;9.80;99.90;;;;;;4966054;28;19961;-61
2021/11/13 11:03:31;;;;;;;;;;;9.80;99.90;;;;;;4969221;28;20152;-61
2021/11/13 11:05:57;;;;;;;;;;;9.80;99.90;;;;;;4975392;28;20387;-61
2021/11/13 11:08:25;;;;;;;;;;;9.90;99.90;;;;;;4970174;28;19965;-61
2021/11/13 11:10:51;;;;;;;;;;;9.90;99.80;;;;;;4969918;28;19924;-61
2021/11/13 11:13:17;;;;;;;;;;;9.90;99.80;;;;;;4971085;28;19914;-61
2021/11/13 11:15:42;;;;;;;;;;;9.90;99.90;;;;;;4979173;28;20387;-61
2021/11/13 11:18:08;;;;;;;;;;;9.90;99.60;;;;;;4974436;28;19910;-61
2021/11/13 11:20:42;;;;;;;;;;;9.90;99.50;;;;;;4970691;28;20252;-61
2021/11/13 11:23:17;;;;;;;;;;;9.90;99.70;;;;;;4970757;28;19910;-61
2021/11/13 11:25:42;;;;;;;;;;;9.90;99.90;;;;;;4970233;28;19922;-61
2021/11/13 11:28:07;;;;;;;;;;;10.00;99.90;;;;;;4970555;28;19918;-61
2021/11/13 11:30:44;;;;;;;;;;;10.40;99.90;;;;;;4968492;28;20591;-61
2021/11/13 11:33:10;;;;;;;;;;;10.60;99.20;;;;;;4968737;28;19968;-61
2021/11/13 11:35:39;;;;;;;;;;;10.50;98.80;;;;;;4969696;28;19914;-62
2021/11/13 11:38:07;;;;;;;;;;;10.40;98.60;;;;;;4970145;28;19926;-61
2021/11/13 11:40:34;;;;;;;;;;;10.20;98.70;;;;;;4973066;28;19914;-60
2021/11/13 11:43:00;;;;;;;;;;;10.10;98.90;;;;;;4969393;28;19961;-61
2021/11/13 11:45:29;;;;;;;;;;;10.00;99.10;;;;;;4969464;28;19922;-61
2021/11/13 11:47:56;;;;;;;;;;;9.90;98.90;;;;;;4967489;28;19914;-61
2021/11/13 11:50:26;;;;;;;;;;;9.80;99.30;;;;;;4969626;28;20375;-61
2021/11/13 11:52:52;;;;;;;;;;;9.80;99.00;;;;;;4969441;28;19972;-61
2021/11/13 11:55:20;;;;;;;;;;;9.80;99.20;;;;;;4974301;28;20350;-61
2021/11/13 11:57:50;;;;;;;;;;;9.70;99.10;;;;;;4976521;28;19922;-60
2021/11/13 12:00:17;;;;;;;;;;;9.70;99.30;;;;;;4968834;28;19965;-61
2021/11/13 12:02:48;;;;;;;;;;;9.70;99.20;;;;;;4969088;28;20005;-61
2021/11/13 12:05:15;;;;;;;;;;;9.70;99.20;;;;;;4989202;23;20437;-61
2021/11/13 12:07:43;;;;;;;;;;;9.60;99.30;;;;;;5023760;28;19924;-62
2021/11/13 12:10:12;;;;;;;;;;;9.60;99.40;;;;;;5025422;28;20380;-62
2021/11/13 12:12:39;;;;;;;;;;;9.60;99.50;;;;;;5019799;28;19949;-60
2021/11/13 12:15:10;;;;;;;;;;;9.60;99.60;;;;;;5022218;28;19914;-62
2021/11/13 12:17:36;;;;;;;;;;;9.70;99.50;;;;;;5024660;28;20366;-63
2021/11/13 12:20:04;;;;;;;;;;;9.70;99.50;;;;;;5024130;28;19913;-62
2021/11/13 12:22:43;;;;;;;;;;;9.70;99.30;;;;;;4989608;28;19913;-63
2021/11/13 12:25:16;;;;;;;;;;;9.70;99.50;;;;;;5019442;28;20460;-61
2021/11/13 12:27:41;;;;;;;;;;;9.70;99.40;;;;;;5023068;28;19913;-61
2021/11/13 12:30:07;;;;;;;;;;;9.80;99.50;;;;;;5025841;28;19920;-63
2021/11/13 12:32:38;;;;;;;;;;;9.80;99.40;;;;;;5024016;28;20008;-60
2021/11/13 12:35:09;;;;;;;;;;;9.80;99.30;;;;;;5025708;28;20354;-63
2021/11/13 12:37:34;;;;;;;;;;;9.80;99.30;;;;;;5024678;28;19913;-60
2021/11/13 12:40:00;;;;;;;;;;;9.80;99.40;;;;;;5025628;28;19924;-62
2021/11/13 12:42:27;;;;;;;;;;;9.80;99.30;;;;;;5024708;28;19920;-63
2021/11/13 12:44:59;;;;;;;;;;;9.80;99.20;;;;;;5025132;28;19917;-62
2021/11/13 12:47:30;;;;;;;;;;;9.80;99.20;;;;;;5022827;28;19924;-59
2021/11/13 12:50:03;;;;;;;;;;;9.80;99.40;;;;;;5025438;28;19917;-63
2021/11/13 12:52:30;;;;;;;;;;;9.80;99.20;;;;;;5024986;28;20242;-61
2021/11/13 12:55:12;;;;;;;;;;;9.80;99.30;;;;;;5007974;28;20317;-63
2021/11/13 12:57:39;;;;;;;;;;;9.80;99.10;;;;;;5023561;28;20419;-59
2021/11/13 13:00:13;;;;;;;;;;;9.80;99.30;;;;;;5025746;28;19909;-63
2021/11/13 13:02:40;;;;;;;;;;;9.80;99.20;;;;;;5006626;28;19909;-63
2021/11/13 13:05:07;;;;;;;;;;;9.80;99.30;;;;;;5023751;28;20340;-63
2021/11/13 13:07:33;;;;;;;;;;;9.80;99.30;;;;;;5030358;28;19959;-63
2021/11/13 13:10:06;;;;;;;;;;;9.80;99.30;;;;;;5030171;28;19913;-63
2021/11/13 13:12:35;;;;;;;;;;;9.80;99.40;;;;;;5019867;28;19920;-62
2021/11/13 13:15:04;;;;;;;;;;;9.70;99.30;;;;;;5014704;28;19913;-64
2021/11/13 13:17:31;;;;;;;;;;;9.70;99.30;;;;;;5030290;28;19963;-61
2021/11/13 13:19:57;;;;;;;;;;;9.70;99.40;;;;;;5031291;28;19913;-62
2021/11/13 13:22:23;;;;;;;;;;;9.60;99.30;;;;;;5029700;28;19988;-63
2021/11/13 13:24:59;;;;;;;;;;;9.60;99.30;;;;;;5026644;28;19944;-62
2021/11/13 13:27:25;;;;;;;;;;;9.60;99.40;;;;;;5030869;28;19909;-62
2021/11/13 13:29:52;;;;;;;;;;;9.50;99.40;;;;;;5030739;28;20416;-61
2021/11/13 13:32:17;;;;;;;;;;;9.60;99.50;;;;;;5030304;28;19917;-60
2021/11/13 13:34:55;;;;;;;;;;;9.50;99.50;;;;;;5030281;28;20035;-63
2021/11/13 13:37:26;;;;;;;;;;;9.50;99.60;;;;;;5030497;28;19913;-60
2021/11/13 13:39:54;;;;;;;;;;;9.50;99.50;;;;;;5028827;28;19986;-63
2021/11/13 13:42:29;;;;;;;;;;;9.60;99.60;;;;;;5030938;28;19913;-63
2021/11/13 13:44:55;;;;;;;;;;;9.60;99.60;;;;;;5031123;28;20397;-61
2021/11/13 13:47:24;;;;;;;;;;;9.50;99.60;;;;;;5031210;28;19945;-65
2021/11/13 13:49:53;;;;;;;;;;;9.50;99.50;;;;;;5031265;28;19913;-61
2021/11/13 13:52:19;;;;;;;;;;;9.50;99.60;;;;;;5030615;28;19917;-64
2021/11/13 13:54:45;;;;;;;;;;;9.50;99.60;;;;;;5029916;28;19917;-60
2021/11/13 13:57:11;;;;;;;;;;;9.50;99.60;;;;;;5029153;28;19984;-59
2021/11/13 13:59:39;;;;;;;;;;;9.40;99.60;;;;;;5032708;28;19992;-63
2021/11/13 14:02:06;;;;;;;;;;;9.40;99.70;;;;;;5029209;28;19909;-63
2021/11/13 14:04:34;;;;;;;;;;;9.40;99.70;;;;;;5031384;28;20365;-62
2021/11/13 14:07:14;;;;;;;;;;;9.50;99.80;;;;;;5028318;28;19993;-63
2021/11/13 14:09:40;;;;;;;;;;;9.50;99.80;;;;;;5031505;28;19913;-60
2021/11/13 14:12:06;;;;;;;;;;;9.50;99.80;;;;;;5025277;28;19917;-62
2021/11/13 14:14:32;;;;;;;;;;;9.50;99.80;;;;;;5030342;28;20016;-60
2021/11/13 14:16:57;;;;;;;;;;;9.50;99.80;;;;;;5029156;28;20126;-63
2021/11/13 14:19:23;;;;;;;;;;;9.50;99.80;;;;;;5026410;28;19941;-63
2021/11/13 14:21:49;;;;;;;;;;;9.50;99.80;;;;;;5025474;28;19952;-62
2021/11/13 14:24:19;;;;;;;;;;;9.50;99.90;;;;;;5024391;28;20015;-63
2021/11/13 14:26:45;;;;;;;;;;;10.00;99.90;;;;;;5027096;28;20398;-61
2021/11/13 14:29:10;;;;;;;;;;;10.20;99.70;;;;;;5016397;28;20733;-63
2021/11/13 14:31:37;;;;;;;;;;;10.10;99.50;;;;;;5028567;28;19923;-58